Terminal Aerodrome Forecast
Issued by NWS

Home | Current Version | Previous Version | Text Only | Print | Product List | Glossary On
Versions: 1 2 3 4 5 6 7 8 9 10 11 12 13 14 15 16 17 18 19 20
000
FTUS45 KABQ 010529
TAFTCC
TAF
KTCC 010529Z 0106/0206 04020G30KT 6SM -RA BR OVC020
      TEMPO 0107/0111 3SM -RA BR OVC012
     FM011100 03015G25KT 3SM -RA BR OVC012
     FM011800 04012G18KT 6SM -RA BR BKN025 OVC040=

USA.gov is the U.S. government's official web portal to all federal, state and local government web resources and services.